sensor_id;sensor_type;location;lat;lon;timestamp;temperature;humidity
47576;DHT22;33304;52.456;13.328;2024-03-06T00:00:02;3.60;55.40
47576;DHT22;33304;52.456;13.328;2024-03-06T00:02:30;3.70;55.50
47576;DHT22;33304;52.456;13.328;2024-03-06T00:04:57;3.80;52.40
47576;DHT22;33304;52.456;13.328;2024-03-06T00:07:24;3.60;53.10
47576;DHT22;33304;52.456;13.328;2024-03-06T00:09:52;3.80;54.10
47576;DHT22;33304;52.456;13.328;2024-03-06T00:12:19;3.90;51.60
47576;DHT22;33304;52.456;13.328;2024-03-06T00:14:47;4.00;50.30
47576;DHT22;33304;52.456;13.328;2024-03-06T00:17:14;4.00;50.30
47576;DHT22;33304;52.456;13.328;2024-03-06T00:19:41;4.00;49.20
47576;DHT22;33304;52.456;13.328;2024-03-06T00:22:09;4.00;49.10
47576;DHT22;33304;52.456;13.328;2024-03-06T00:24:36;3.90;48.30
47576;DHT22;33304;52.456;13.328;2024-03-06T00:27:05;3.90;50.20
47576;DHT22;33304;52.456;13.328;2024-03-06T00:29:32;3.90;50.20
47576;DHT22;33304;52.456;13.328;2024-03-06T00:32:02;3.90;50.20
47576;DHT22;33304;52.456;13.328;2024-03-06T00:34:29;3.90;50.20
47576;DHT22;33304;52.456;13.328;2024-03-06T00:36:56;3.80;50.10
47576;DHT22;33304;52.456;13.328;2024-03-06T00:39:24;3.80;50.20
47576;DHT22;33304;52.456;13.328;2024-03-06T00:41:51;3.70;52.70
47576;DHT22;33304;52.456;13.328;2024-03-06T00:44:20;3.70;54.00
47576;DHT22;33304;52.456;13.328;2024-03-06T00:46:47;3.80;52.30
47576;DHT22;33304;52.456;13.328;2024-03-06T00:49:14;3.90;51.20
47576;DHT22;33304;52.456;13.328;2024-03-06T00:51:41;3.90;50.20
47576;DHT22;33304;52.456;13.328;2024-03-06T00:54:08;3.90;51.10
47576;DHT22;33304;52.456;13.328;2024-03-06T00:56:37;3.90;50.70
47576;DHT22;33304;52.456;13.328;2024-03-06T00:59:04;3.80;51.60
47576;DHT22;33304;52.456;13.328;2024-03-06T01:01:33;3.90;51.90
47576;DHT22;33304;52.456;13.328;2024-03-06T01:04:00;3.80;52.00
47576;DHT22;33304;52.456;13.328;2024-03-06T01:06:28;3.90;51.10
47576;DHT22;33304;52.456;13.328;2024-03-06T01:08:55;3.70;51.60
47576;DHT22;33304;52.456;13.328;2024-03-06T01:11:24;3.80;53.00
47576;DHT22;33304;52.456;13.328;2024-03-06T01:13:52;3.80;54.10
47576;DHT22;33304;52.456;13.328;2024-03-06T01:16:19;3.60;54.70
47576;DHT22;33304;52.456;13.328;2024-03-06T01:18:48;3.60;56.20
47576;DHT22;33304;52.456;13.328;2024-03-06T01:21:15;3.70;56.10
47576;DHT22;33304;52.456;13.328;2024-03-06T01:23:42;3.70;56.30
47576;DHT22;33304;52.456;13.328;2024-03-06T01:26:09;3.60;55.50
47576;DHT22;33304;52.456;13.328;2024-03-06T01:28:37;3.70;56.40
47576;DHT22;33304;52.456;13.328;2024-03-06T01:31:04;3.70;57.70
47576;DHT22;33304;52.456;13.328;2024-03-06T01:33:31;3.60;58.00
47576;DHT22;33304;52.456;13.328;2024-03-06T01:35:59;3.70;59.60
47576;DHT22;33304;52.456;13.328;2024-03-06T01:38:26;3.70;59.00
47576;DHT22;33304;52.456;13.328;2024-03-06T01:40:53;3.70;57.40
47576;DHT22;33304;52.456;13.328;2024-03-06T01:43:21;3.60;59.60
47576;DHT22;33304;52.456;13.328;2024-03-06T01:45:49;3.70;60.80
47576;DHT22;33304;52.456;13.328;2024-03-06T01:48:17;3.70;60.80
47576;DHT22;33304;52.456;13.328;2024-03-06T01:50:44;3.60;60.80
47576;DHT22;33304;52.456;13.328;2024-03-06T01:53:14;3.60;64.00
47576;DHT22;33304;52.456;13.328;2024-03-06T01:55:42;3.60;64.50
47576;DHT22;33304;52.456;13.328;2024-03-06T01:58:09;3.50;63.70
47576;DHT22;33304;52.456;13.328;2024-03-06T02:00:37;3.60;65.50
47576;DHT22;33304;52.456;13.328;2024-03-06T02:03:04;3.60;66.20
47576;DHT22;33304;52.456;13.328;2024-03-06T02:05:32;3.50;66.10
47576;DHT22;33304;52.456;13.328;2024-03-06T02:07:59;3.50;67.90
47576;DHT22;33304;52.456;13.328;2024-03-06T02:10:28;3.50;68.40
47576;DHT22;33304;52.456;13.328;2024-03-06T02:12:55;3.50;68.10
47576;DHT22;33304;52.456;13.328;2024-03-06T02:15:23;3.50;70.60
47576;DHT22;33304;52.456;13.328;2024-03-06T02:17:50;3.40;71.30
47576;DHT22;33304;52.456;13.328;2024-03-06T02:20:22;3.50;73.40
47576;DHT22;33304;52.456;13.328;2024-03-06T02:22:49;3.50;72.50
47576;DHT22;33304;52.456;13.328;2024-03-06T02:25:16;3.50;71.50
47576;DHT22;33304;52.456;13.328;2024-03-06T02:27:45;3.40;71.40
47576;DHT22;33304;52.456;13.328;2024-03-06T02:30:14;3.40;74.30
47576;DHT22;33304;52.456;13.328;2024-03-06T02:32:41;3.30;76.40
47576;DHT22;33304;52.456;13.328;2024-03-06T02:35:09;3.40;77.40
47576;DHT22;33304;52.456;13.328;2024-03-06T02:37:38;3.30;77.10
47576;DHT22;33304;52.456;13.328;2024-03-06T02:40:06;3.50;76.60
47576;DHT22;33304;52.456;13.328;2024-03-06T02:42:35;3.50;76.70
47576;DHT22;33304;52.456;13.328;2024-03-06T02:45:05;3.50;76.60
47576;DHT22;33304;52.456;13.328;2024-03-06T02:47:32;3.40;76.50
47576;DHT22;33304;52.456;13.328;2024-03-06T02:49:59;3.40;78.40
47576;DHT22;33304;52.456;13.328;2024-03-06T02:52:26;3.40;79.30
47576;DHT22;33304;52.456;13.328;2024-03-06T02:54:55;3.50;77.00
47576;DHT22;33304;52.456;13.328;2024-03-06T02:57:23;3.50;78.20
47576;DHT22;33304;52.456;13.328;2024-03-06T02:59:50;3.50;78.30
47576;DHT22;33304;52.456;13.328;2024-03-06T03:02:17;3.50;78.70
47576;DHT22;33304;52.456;13.328;2024-03-06T03:04:44;3.50;78.00
47576;DHT22;33304;52.456;13.328;2024-03-06T03:07:11;3.50;77.90
47576;DHT22;33304;52.456;13.328;2024-03-06T03:09:38;3.50;79.70
47576;DHT22;33304;52.456;13.328;2024-03-06T03:12:06;3.50;79.10
47576;DHT22;33304;52.456;13.328;2024-03-06T03:14:34;3.40;79.00
47576;DHT22;33304;52.456;13.328;2024-03-06T03:17:01;3.40;80.40
47576;DHT22;33304;52.456;13.328;2024-03-06T03:19:28;3.30;81.50
47576;DHT22;33304;52.456;13.328;2024-03-06T03:21:55;3.30;84.70
47576;DHT22;33304;52.456;13.328;2024-03-06T03:24:23;3.20;87.80
47576;DHT22;33304;52.456;13.328;2024-03-06T03:26:51;3.20;89.70
47576;DHT22;33304;52.456;13.328;2024-03-06T03:29:20;3.10;92.00
47576;DHT22;33304;52.456;13.328;2024-03-06T03:31:47;3.10;93.80
47576;DHT22;33304;52.456;13.328;2024-03-06T03:34:14;3.20;94.00
47576;DHT22;33304;52.456;13.328;2024-03-06T03:36:42;3.30;92.90
47576;DHT22;33304;52.456;13.328;2024-03-06T03:39:10;3.20;92.60
47576;DHT22;33304;52.456;13.328;2024-03-06T03:41:45;3.10;93.60
47576;DHT22;33304;52.456;13.328;2024-03-06T03:44:13;3.00;94.30
47576;DHT22;33304;52.456;13.328;2024-03-06T03:46:42;2.90;95.90
47576;DHT22;33304;52.456;13.328;2024-03-06T03:49:09;2.90;97.00
47576;DHT22;33304;52.456;13.328;2024-03-06T03:51:37;3.00;99.40
47576;DHT22;33304;52.456;13.328;2024-03-06T03:54:05;2.90;98.80
47576;DHT22;33304;52.456;13.328;2024-03-06T03:56:32;2.90;99.60
47576;DHT22;33304;52.456;13.328;2024-03-06T03:58:59;2.80;99.50
47576;DHT22;33304;52.456;13.328;2024-03-06T04:01:26;2.80;99.90
47576;DHT22;33304;52.456;13.328;2024-03-06T04:03:55;2.70;99.90
47576;DHT22;33304;52.456;13.328;2024-03-06T04:06:22;2.70;99.90
47576;DHT22;33304;52.456;13.328;2024-03-06T04:08:49;2.70;99.90
47576;DHT22;33304;52.456;13.328;2024-03-06T04:11:16;2.70;99.90
47576;DHT22;33304;52.456;13.328;2024-03-06T04:13:43;2.80;99.90
47576;DHT22;33304;52.456;13.328;2024-03-06T04:16:16;2.80;99.90
47576;DHT22;33304;52.456;13.328;2024-03-06T04:18:43;2.90;99.90
47576;DHT22;33304;52.456;13.328;2024-03-06T04:21:11;2.90;99.90
47576;DHT22;33304;52.456;13.328;2024-03-06T04:23:40;2.90;99.90
47576;DHT22;33304;52.456;13.328;2024-03-06T04:26:07;2.90;99.90
47576;DHT22;33304;52.456;13.328;2024-03-06T04:28:34;2.90;99.90
47576;DHT22;33304;52.456;13.328;2024-03-06T04:31:02;2.80;99.90
47576;DHT22;33304;52.456;13.328;2024-03-06T04:33:29;2.70;99.90
47576;DHT22;33304;52.456;13.328;2024-03-06T04:35:56;2.60;99.90
47576;DHT22;33304;52.456;13.328;2024-03-06T04:38:24;2.60;99.90
47576;DHT22;33304;52.456;13.328;2024-03-06T04:40:51;2.60;99.90
47576;DHT22;33304;52.456;13.328;2024-03-06T04:43:18;2.60;99.90
47576;DHT22;33304;52.456;13.328;2024-03-06T04:45:45;2.60;99.90
47576;DHT22;33304;52.456;13.328;2024-03-06T04:48:12;2.50;99.90
47576;DHT22;33304;52.456;13.328;2024-03-06T04:50:39;2.60;99.90
47576;DHT22;33304;52.456;13.328;2024-03-06T04:53:07;2.70;99.90
47576;DHT22;33304;52.456;13.328;2024-03-06T04:55:35;2.70;99.90
47576;DHT22;33304;52.456;13.328;2024-03-06T04:58:03;2.60;99.90
47576;DHT22;33304;52.456;13.328;2024-03-06T05:00:30;2.60;99.90
47576;DHT22;33304;52.456;13.328;2024-03-06T05:02:58;2.70;99.90
47576;DHT22;33304;52.456;13.328;2024-03-06T05:05:25;2.70;99.90
47576;DHT22;33304;52.456;13.328;2024-03-06T05:07:52;2.80;99.90
47576;DHT22;33304;52.456;13.328;2024-03-06T05:10:19;2.90;99.90
47576;DHT22;33304;52.456;13.328;2024-03-06T05:12:48;2.90;99.90
47576;DHT22;33304;52.456;13.328;2024-03-06T05:15:16;2.90;99.90
47576;DHT22;33304;52.456;13.328;2024-03-06T05:17:45;2.70;99.90
47576;DHT22;33304;52.456;13.328;2024-03-06T05:20:12;2.60;99.90
47576;DHT22;33304;52.456;13.328;2024-03-06T05:22:40;2.60;99.90
47576;DHT22;33304;52.456;13.328;2024-03-06T05:25:07;2.50;99.90
47576;DHT22;33304;52.456;13.328;2024-03-06T05:27:34;2.50;99.90
47576;DHT22;33304;52.456;13.328;2024-03-06T05:30:03;2.60;99.90
47576;DHT22;33304;52.456;13.328;2024-03-06T05:32:31;2.60;99.90
47576;DHT22;33304;52.456;13.328;2024-03-06T05:34:58;2.70;99.90
47576;DHT22;33304;52.456;13.328;2024-03-06T05:37:25;2.60;99.90
47576;DHT22;33304;52.456;13.328;2024-03-06T05:39:54;2.80;99.90
47576;DHT22;33304;52.456;13.328;2024-03-06T05:42:21;2.80;99.90
47576;DHT22;33304;52.456;13.328;2024-03-06T05:44:48;2.80;99.90
47576;DHT22;33304;52.456;13.328;2024-03-06T05:47:17;2.70;99.90
47576;DHT22;33304;52.456;13.328;2024-03-06T05:49:45;2.60;99.90
47576;DHT22;33304;52.456;13.328;2024-03-06T05:52:13;2.60;99.90
47576;DHT22;33304;52.456;13.328;2024-03-06T05:54:40;2.60;99.90
47576;DHT22;33304;52.456;13.328;2024-03-06T05:57:07;2.70;99.90
47576;DHT22;33304;52.456;13.328;2024-03-06T05:59:34;2.80;99.90
47576;DHT22;33304;52.456;13.328;2024-03-06T06:02:03;2.90;99.90
47576;DHT22;33304;52.456;13.328;2024-03-06T06:04:32;2.90;99.90
47576;DHT22;33304;52.456;13.328;2024-03-06T06:06:59;2.90;99.90
47576;DHT22;33304;52.456;13.328;2024-03-06T06:09:26;2.90;99.90
47576;DHT22;33304;52.456;13.328;2024-03-06T06:11:53;2.90;99.90
47576;DHT22;33304;52.456;13.328;2024-03-06T06:14:20;2.90;99.90
47576;DHT22;33304;52.456;13.328;2024-03-06T06:16:47;2.90;99.90
47576;DHT22;33304;52.456;13.328;2024-03-06T06:19:14;2.80;99.90
47576;DHT22;33304;52.456;13.328;2024-03-06T06:21:44;2.90;99.90
47576;DHT22;33304;52.456;13.328;2024-03-06T06:24:11;2.90;99.90
47576;DHT22;33304;52.456;13.328;2024-03-06T06:26:38;2.90;99.90
47576;DHT22;33304;52.456;13.328;2024-03-06T06:29:05;3.00;99.90
47576;DHT22;33304;52.456;13.328;2024-03-06T06:31:32;3.00;99.90
47576;DHT22;33304;52.456;13.328;2024-03-06T06:34:00;3.00;99.90
47576;DHT22;33304;52.456;13.328;2024-03-06T06:36:27;3.00;99.90
47576;DHT22;33304;52.456;13.328;2024-03-06T06:38:55;3.00;99.90
47576;DHT22;33304;52.456;13.328;2024-03-06T06:41:23;2.90;99.90
47576;DHT22;33304;52.456;13.328;2024-03-06T06:43:50;3.10;99.90
47576;DHT22;33304;52.456;13.328;2024-03-06T06:46:18;3.10;99.90
47576;DHT22;33304;52.456;13.328;2024-03-06T06:48:45;3.10;99.90
47576;DHT22;33304;52.456;13.328;2024-03-06T06:51:14;3.10;99.90
47576;DHT22;33304;52.456;13.328;2024-03-06T06:53:42;3.20;99.90
47576;DHT22;33304;52.456;13.328;2024-03-06T06:56:10;3.30;99.90
47576;DHT22;33304;52.456;13.328;2024-03-06T06:58:37;3.30;99.90
47576;DHT22;33304;52.456;13.328;2024-03-06T07:01:08;3.30;99.90
47576;DHT22;33304;52.456;13.328;2024-03-06T07:03:35;3.40;99.90
47576;DHT22;33304;52.456;13.328;2024-03-06T07:06:03;3.40;99.90
47576;DHT22;33304;52.456;13.328;2024-03-06T07:08:30;3.30;99.90
47576;DHT22;33304;52.456;13.328;2024-03-06T07:10:57;3.40;99.90
47576;DHT22;33304;52.456;13.328;2024-03-06T07:13:26;3.40;99.90
47576;DHT22;33304;52.456;13.328;2024-03-06T07:15:53;3.50;99.90
47576;DHT22;33304;52.456;13.328;2024-03-06T07:18:20;3.50;99.90
47576;DHT22;33304;52.456;13.328;2024-03-06T07:20:47;3.50;99.90
47576;DHT22;33304;52.456;13.328;2024-03-06T07:23:14;3.50;99.90
47576;DHT22;33304;52.456;13.328;2024-03-06T07:25:41;3.60;99.90
47576;DHT22;33304;52.456;13.328;2024-03-06T07:28:08;3.60;99.90
47576;DHT22;33304;52.456;13.328;2024-03-06T07:30:37;3.70;99.90
47576;DHT22;33304;52.456;13.328;2024-03-06T07:33:04;3.70;99.90
47576;DHT22;33304;52.456;13.328;2024-03-06T07:35:32;3.70;99.90
47576;DHT22;33304;52.456;13.328;2024-03-06T07:38:28;3.90;99.90
47576;DHT22;33304;52.456;13.328;2024-03-06T07:40:55;4.00;99.90
47576;DHT22;33304;52.456;13.328;2024-03-06T07:43:22;4.10;99.90
47576;DHT22;33304;52.456;13.328;2024-03-06T07:45:51;4.10;95.40
47576;DHT22;33304;52.456;13.328;2024-03-06T07:48:18;4.20;93.20
47576;DHT22;33304;52.456;13.328;2024-03-06T07:50:46;4.20;91.10
47576;DHT22;33304;52.456;13.328;2024-03-06T07:53:13;4.20;88.60
47576;DHT22;33304;52.456;13.328;2024-03-06T07:55:40;4.30;86.50
47576;DHT22;33304;52.456;13.328;2024-03-06T07:58:07;4.30;82.40
47576;DHT22;33304;52.456;13.328;2024-03-06T08:00:35;4.40;79.10
47576;DHT22;33304;52.456;13.328;2024-03-06T08:03:03;4.40;78.60
47576;DHT22;33304;52.456;13.328;2024-03-06T08:05:31;4.50;77.50
47576;DHT22;33304;52.456;13.328;2024-03-06T08:07:59;4.60;74.10
47576;DHT22;33304;52.456;13.328;2024-03-06T08:10:26;4.60;72.30
47576;DHT22;33304;52.456;13.328;2024-03-06T08:12:53;4.70;69.40
47576;DHT22;33304;52.456;13.328;2024-03-06T08:15:20;4.90;66.40
47576;DHT22;33304;52.456;13.328;2024-03-06T08:17:50;4.90;62.80
47576;DHT22;33304;52.456;13.328;2024-03-06T08:20:19;5.00;62.00
47576;DHT22;33304;52.456;13.328;2024-03-06T08:22:46;5.10;59.60
47576;DHT22;33304;52.456;13.328;2024-03-06T08:25:14;5.10;56.70
47576;DHT22;33304;52.456;13.328;2024-03-06T08:27:42;5.20;56.80
47576;DHT22;33304;52.456;13.328;2024-03-06T08:30:09;5.30;53.10
47576;DHT22;33304;52.456;13.328;2024-03-06T08:32:36;5.40;51.40
47576;DHT22;33304;52.456;13.328;2024-03-06T08:35:04;5.60;49.60
47576;DHT22;33304;52.456;13.328;2024-03-06T08:37:34;5.60;48.30
47576;DHT22;33304;52.456;13.328;2024-03-06T08:40:01;5.60;47.00
47576;DHT22;33304;52.456;13.328;2024-03-06T08:42:28;5.70;46.70
47576;DHT22;33304;52.456;13.328;2024-03-06T08:44:56;5.70;43.70
47576;DHT22;33304;52.456;13.328;2024-03-06T08:47:23;5.90;44.00
47576;DHT22;33304;52.456;13.328;2024-03-06T08:49:50;5.90;42.20
47576;DHT22;33304;52.456;13.328;2024-03-06T08:52:17;6.00;40.80
47576;DHT22;33304;52.456;13.328;2024-03-06T08:54:47;6.00;40.60
47576;DHT22;33304;52.456;13.328;2024-03-06T08:57:14;6.00;37.10
47576;DHT22;33304;52.456;13.328;2024-03-06T08:59:41;6.10;37.60
47576;DHT22;33304;52.456;13.328;2024-03-06T09:02:13;6.20;36.40
47576;DHT22;33304;52.456;13.328;2024-03-06T09:04:41;6.30;35.30
47576;DHT22;33304;52.456;13.328;2024-03-06T09:07:08;6.30;35.00
47576;DHT22;33304;52.456;13.328;2024-03-06T09:09:36;6.40;33.60
47576;DHT22;33304;52.456;13.328;2024-03-06T09:12:06;6.50;32.00
47576;DHT22;33304;52.456;13.328;2024-03-06T09:14:36;6.50;32.80
47576;DHT22;33304;52.456;13.328;2024-03-06T09:17:04;6.60;31.20
47576;DHT22;33304;52.456;13.328;2024-03-06T09:19:32;6.70;31.40
47576;DHT22;33304;52.456;13.328;2024-03-06T09:22:01;6.90;30.00
47576;DHT22;33304;52.456;13.328;2024-03-06T09:24:28;6.90;30.00
47576;DHT22;33304;52.456;13.328;2024-03-06T09:26:55;7.00;29.20
47576;DHT22;33304;52.456;13.328;2024-03-06T09:29:24;7.20;26.80
47576;DHT22;33304;52.456;13.328;2024-03-06T09:31:51;7.30;26.30
47576;DHT22;33304;52.456;13.328;2024-03-06T09:34:18;7.30;25.60
47576;DHT22;33304;52.456;13.328;2024-03-06T09:36:48;7.50;24.20
47576;DHT22;33304;52.456;13.328;2024-03-06T09:39:16;7.50;22.60
47576;DHT22;33304;52.456;13.328;2024-03-06T09:41:46;7.50;22.50
47576;DHT22;33304;52.456;13.328;2024-03-06T09:44:14;7.60;23.00
47576;DHT22;33304;52.456;13.328;2024-03-06T09:46:44;7.70;21.30
47576;DHT22;33304;52.456;13.328;2024-03-06T09:49:13;7.70;20.40
47576;DHT22;33304;52.456;13.328;2024-03-06T09:51:43;7.70;21.30
47576;DHT22;33304;52.456;13.328;2024-03-06T09:54:12;7.80;20.00
47576;DHT22;33304;52.456;13.328;2024-03-06T09:56:41;8.00;19.70
47576;DHT22;33304;52.456;13.328;2024-03-06T09:59:09;8.00;19.70
47576;DHT22;33304;52.456;13.328;2024-03-06T10:01:39;8.00;19.30
47576;DHT22;33304;52.456;13.328;2024-03-06T10:04:19;8.00;20.30
47576;DHT22;33304;52.456;13.328;2024-03-06T10:06:46;8.20;18.30
47576;DHT22;33304;52.456;13.328;2024-03-06T10:09:16;8.30;19.00
47576;DHT22;33304;52.456;13.328;2024-03-06T10:11:43;8.60;18.10
47576;DHT22;33304;52.456;13.328;2024-03-06T10:14:11;8.70;17.10
47576;DHT22;33304;52.456;13.328;2024-03-06T10:16:52;8.90;16.90
47576;DHT22;33304;52.456;13.328;2024-03-06T10:19:21;9.10;14.30
47576;DHT22;33304;52.456;13.328;2024-03-06T10:21:49;9.20;13.80
47576;DHT22;33304;52.456;13.328;2024-03-06T10:24:18;9.20;12.60
47576;DHT22;33304;52.456;13.328;2024-03-06T10:26:46;9.20;12.60
47576;DHT22;33304;52.456;13.328;2024-03-06T10:29:16;9.20;12.80
47576;DHT22;33304;52.456;13.328;2024-03-06T10:31:51;9.20;15.00
47576;DHT22;33304;52.456;13.328;2024-03-06T10:34:19;9.10;13.60
47576;DHT22;33304;52.456;13.328;2024-03-06T10:36:49;8.80;13.70
47576;DHT22;33304;52.456;13.328;2024-03-06T10:39:20;8.80;14.30
47576;DHT22;33304;52.456;13.328;2024-03-06T10:41:52;9.10;14.60
47576;DHT22;33304;52.456;13.328;2024-03-06T10:44:22;9.20;12.60
47576;DHT22;33304;52.456;13.328;2024-03-06T10:46:55;9.30;12.60
47576;DHT22;33304;52.456;13.328;2024-03-06T10:49:27;9.50;12.00
47576;DHT22;33304;52.456;13.328;2024-03-06T10:51:57;9.80;11.20
47576;DHT22;33304;52.456;13.328;2024-03-06T10:54:27;9.70;7.40
47576;DHT22;33304;52.456;13.328;2024-03-06T10:56:55;9.60;8.40
47576;DHT22;33304;52.456;13.328;2024-03-06T10:59:24;9.50;8.90
47576;DHT22;33304;52.456;13.328;2024-03-06T11:01:54;9.00;8.50
47576;DHT22;33304;52.456;13.328;2024-03-06T11:04:24;8.90;9.90
47576;DHT22;33304;52.456;13.328;2024-03-06T11:06:53;8.90;9.70
47576;DHT22;33304;52.456;13.328;2024-03-06T11:09:20;8.80;10.50
47576;DHT22;33304;52.456;13.328;2024-03-06T11:11:48;8.90;11.00
47576;DHT22;33304;52.456;13.328;2024-03-06T11:14:15;9.00;10.20
47576;DHT22;33304;52.456;13.328;2024-03-06T11:16:59;9.20;9.30
47576;DHT22;33304;52.456;13.328;2024-03-06T11:19:27;9.40;10.00
47576;DHT22;33304;52.456;13.328;2024-03-06T11:21:56;9.80;7.40
47576;DHT22;33304;52.456;13.328;2024-03-06T11:24:24;9.70;6.00
47576;DHT22;33304;52.456;13.328;2024-03-06T11:27:00;9.80;7.70
47576;DHT22;33304;52.456;13.328;2024-03-06T11:29:28;10.10;6.00
47576;DHT22;33304;52.456;13.328;2024-03-06T11:32:02;10.10;4.50
47576;DHT22;33304;52.456;13.328;2024-03-06T11:34:29;9.90;6.40
47576;DHT22;33304;52.456;13.328;2024-03-06T11:36:59;10.00;6.70
47576;DHT22;33304;52.456;13.328;2024-03-06T11:39:28;9.70;7.30
47576;DHT22;33304;52.456;13.328;2024-03-06T11:41:57;9.50;8.60
47576;DHT22;33304;52.456;13.328;2024-03-06T11:44:24;9.50;9.50
47576;DHT22;33304;52.456;13.328;2024-03-06T11:46:57;9.40;8.30
47576;DHT22;33304;52.456;13.328;2024-03-06T11:49:26;9.40;7.90
47576;DHT22;33304;52.456;13.328;2024-03-06T11:51:56;9.70;8.60
47576;DHT22;33304;52.456;13.328;2024-03-06T11:54:25;10.00;4.50
47576;DHT22;33304;52.456;13.328;2024-03-06T11:56:54;10.30;2.50
47576;DHT22;33304;52.456;13.328;2024-03-06T11:59:22;10.50;3.20
47576;DHT22;33304;52.456;13.328;2024-03-06T12:01:50;10.90;6.40
47576;DHT22;33304;52.456;13.328;2024-03-06T12:04:19;11.50;4.30
47576;DHT22;33304;52.456;13.328;2024-03-06T12:06:46;11.90;2.70
47576;DHT22;33304;52.456;13.328;2024-03-06T12:09:13;11.80;2.70
47576;DHT22;33304;52.456;13.328;2024-03-06T12:11:42;11.30;2.40
47576;DHT22;33304;52.456;13.328;2024-03-06T12:14:13;11.00;1.50
47576;DHT22;33304;52.456;13.328;2024-03-06T12:16:43;10.90;2.40
47576;DHT22;33304;52.456;13.328;2024-03-06T12:19:10;10.90;1.10
47576;DHT22;33304;52.456;13.328;2024-03-06T12:21:39;10.50;1.60
47576;DHT22;33304;52.456;13.328;2024-03-06T12:24:08;10.70;2.50
47576;DHT22;33304;52.456;13.328;2024-03-06T12:26:36;10.70;1.00
47576;DHT22;33304;52.456;13.328;2024-03-06T12:29:05;10.80;1.20
47576;DHT22;33304;52.456;13.328;2024-03-06T12:31:35;11.00;1.00
47576;DHT22;33304;52.456;13.328;2024-03-06T12:34:02;11.10;1.00
47576;DHT22;33304;52.456;13.328;2024-03-06T12:36:30;11.00;1.00
47576;DHT22;33304;52.456;13.328;2024-03-06T12:38:59;11.20;1.00
47576;DHT22;33304;52.456;13.328;2024-03-06T12:41:26;11.30;1.00
47576;DHT22;33304;52.456;13.328;2024-03-06T12:43:54;11.30;1.00
47576;DHT22;33304;52.456;13.328;2024-03-06T12:46:24;11.30;1.00
47576;DHT22;33304;52.456;13.328;2024-03-06T12:48:52;11.30;1.00
47576;DHT22;33304;52.456;13.328;2024-03-06T12:51:19;11.00;1.00
47576;DHT22;33304;52.456;13.328;2024-03-06T12:53:46;11.20;1.00
47576;DHT22;33304;52.456;13.328;2024-03-06T12:56:14;10.90;1.00
47576;DHT22;33304;52.456;13.328;2024-03-06T12:58:41;11.20;1.00
47576;DHT22;33304;52.456;13.328;2024-03-06T13:01:08;11.70;1.00
47576;DHT22;33304;52.456;13.328;2024-03-06T13:03:37;12.00;1.00
47576;DHT22;33304;52.456;13.328;2024-03-06T13:06:05;12.40;1.00
47576;DHT22;33304;52.456;13.328;2024-03-06T13:08:32;12.30;1.00
47576;DHT22;33304;52.456;13.328;2024-03-06T13:10:59;12.10;1.00
47576;DHT22;33304;52.456;13.328;2024-03-06T13:13:26;12.10;1.00
47576;DHT22;33304;52.456;13.328;2024-03-06T13:15:56;11.80;1.00
47576;DHT22;33304;52.456;13.328;2024-03-06T13:18:24;11.50;1.00
47576;DHT22;33304;52.456;13.328;2024-03-06T13:20:52;11.10;1.00
47576;DHT22;33304;52.456;13.328;2024-03-06T13:23:20;10.70;1.00
47576;DHT22;33304;52.456;13.328;2024-03-06T13:25:48;10.70;1.00
47576;DHT22;33304;52.456;13.328;2024-03-06T13:28:15;10.60;1.00
47576;DHT22;33304;52.456;13.328;2024-03-06T13:30:42;10.80;1.00
47576;DHT22;33304;52.456;13.328;2024-03-06T13:33:09;10.70;1.00
47576;DHT22;33304;52.456;13.328;2024-03-06T13:35:37;10.60;1.00
47576;DHT22;33304;52.456;13.328;2024-03-06T13:38:06;10.60;1.00
47576;DHT22;33304;52.456;13.328;2024-03-06T13:40:33;10.40;1.40
47576;DHT22;33304;52.456;13.328;2024-03-06T13:43:00;10.60;2.10
47576;DHT22;33304;52.456;13.328;2024-03-06T13:45:27;10.60;1.20
47576;DHT22;33304;52.456;13.328;2024-03-06T13:47:54;10.70;1.00
47576;DHT22;33304;52.456;13.328;2024-03-06T13:50:22;10.70;1.00
47576;DHT22;33304;52.456;13.328;2024-03-06T13:52:51;10.60;1.00
47576;DHT22;33304;52.456;13.328;2024-03-06T13:55:19;10.50;1.00
47576;DHT22;33304;52.456;13.328;2024-03-06T13:57:47;10.60;1.00
47576;DHT22;33304;52.456;13.328;2024-03-06T14:00:14;11.30;1.00
47576;DHT22;33304;52.456;13.328;2024-03-06T14:02:44;11.50;1.00
47576;DHT22;33304;52.456;13.328;2024-03-06T14:05:11;11.40;1.00
47576;DHT22;33304;52.456;13.328;2024-03-06T14:07:39;11.20;1.00
47576;DHT22;33304;52.456;13.328;2024-03-06T14:10:07;11.00;1.00
47576;DHT22;33304;52.456;13.328;2024-03-06T14:12:37;10.50;1.00
47576;DHT22;33304;52.456;13.328;2024-03-06T14:15:05;10.30;1.00
47576;DHT22;33304;52.456;13.328;2024-03-06T14:17:38;10.20;1.00
47576;DHT22;33304;52.456;13.328;2024-03-06T14:20:05;10.20;1.00
47576;DHT22;33304;52.456;13.328;2024-03-06T14:22:33;10.10;1.00
47576;DHT22;33304;52.456;13.328;2024-03-06T14:25:01;9.90;1.00
47576;DHT22;33304;52.456;13.328;2024-03-06T14:27:28;9.80;1.70
47576;DHT22;33304;52.456;13.328;2024-03-06T14:29:57;9.80;1.30
47576;DHT22;33304;52.456;13.328;2024-03-06T14:32:24;9.70;1.60
47576;DHT22;33304;52.456;13.328;2024-03-06T14:34:51;9.70;1.70
47576;DHT22;33304;52.456;13.328;2024-03-06T14:37:18;9.50;1.00
47576;DHT22;33304;52.456;13.328;2024-03-06T14:39:45;9.30;1.00
47576;DHT22;33304;52.456;13.328;2024-03-06T14:42:13;9.30;1.00
47576;DHT22;33304;52.456;13.328;2024-03-06T14:44:40;9.10;1.00
47576;DHT22;33304;52.456;13.328;2024-03-06T14:47:10;9.10;1.20
47576;DHT22;33304;52.456;13.328;2024-03-06T14:49:37;9.10;2.10
47576;DHT22;33304;52.456;13.328;2024-03-06T14:52:05;9.20;1.00
47576;DHT22;33304;52.456;13.328;2024-03-06T14:54:32;9.30;1.10
47576;DHT22;33304;52.456;13.328;2024-03-06T14:56:59;9.40;1.00
47576;DHT22;33304;52.456;13.328;2024-03-06T14:59:26;9.30;1.00
47576;DHT22;33304;52.456;13.328;2024-03-06T15:01:53;9.40;1.00
47576;DHT22;33304;52.456;13.328;2024-03-06T15:04:22;9.20;1.40
47576;DHT22;33304;52.456;13.328;2024-03-06T15:06:49;9.00;2.40
47576;DHT22;33304;52.456;13.328;2024-03-06T15:09:16;9.00;2.40
47576;DHT22;33304;52.456;13.328;2024-03-06T15:11:47;9.00;2.40
47576;DHT22;33304;52.456;13.328;2024-03-06T15:14:17;8.90;2.30
47576;DHT22;33304;52.456;13.328;2024-03-06T15:16:44;8.80;2.30
47576;DHT22;33304;52.456;13.328;2024-03-06T15:19:11;8.90;2.30
47576;DHT22;33304;52.456;13.328;2024-03-06T15:21:40;8.90;2.30
47576;DHT22;33304;52.456;13.328;2024-03-06T15:24:07;9.00;2.40
47576;DHT22;33304;52.456;13.328;2024-03-06T15:26:34;9.00;2.40
47576;DHT22;33304;52.456;13.328;2024-03-06T15:29:02;8.90;2.30
47576;DHT22;33304;52.456;13.328;2024-03-06T15:31:30;9.00;2.40
47576;DHT22;33304;52.456;13.328;2024-03-06T15:33:57;9.10;2.50
47576;DHT22;33304;52.456;13.328;2024-03-06T15:36:25;9.10;2.70